Time;durP1;ratioP1;P1;durP2;ratioP2;P2;SDS_P1;SDS_P2;PMS_P1;PMS_P2;Temp;Humidity;BMP_temperature;BMP_pressure;BME280_temperature;BME280_humidity;BME280_pressure;Samples;Min_cycle;Max_cycle;Signal;HPM_P1;HPM_P2
2023/11/14 00:00:25;;;;;;;11.40;10.30;;;;;;;6.48;100.00;98383.47;5089509;28;20675;-79
2023/11/14 00:02:53;;;;;;;9.73;8.77;;;;;;;6.39;100.00;98392.75;5080256;28;20262;-79
2023/11/14 00:05:22;;;;;;;11.50;10.30;;;;;;;6.37;100.00;98380.72;5080245;28;20196;-78
2023/11/14 00:07:50;;;;;;;9.60;8.60;;;;;;;6.33;100.00;98374.22;5078885;28;20220;-80
2023/11/14 00:10:21;;;;;;;10.37;9.33;;;;;;;6.29;100.00;98381.84;5072953;28;20197;-79
2023/11/14 00:12:49;;;;;;;9.97;9.07;;;;;;;6.26;100.00;98392.91;5077257;28;20305;-80
2023/11/14 00:15:18;;;;;;;10.77;9.07;;;;;;;6.24;100.00;98405.63;5073047;28;20196;-80
2023/11/14 00:17:46;;;;;;;9.40;8.30;;;;;;;6.22;100.00;98401.56;5071913;28;20227;-79
2023/11/14 00:20:17;;;;;;;11.57;8.30;;;;;;;6.21;100.00;98408.72;5073501;28;20192;-79
2023/11/14 00:22:49;;;;;;;8.77;7.97;;;;;;;6.20;100.00;98415.09;5077070;28;20193;-79
2023/11/14 00:25:19;;;;;;;9.13;8.23;;;;;;;6.14;100.00;98414.13;5081148;28;20668;-77
2023/11/14 00:27:50;;;;;;;9.20;8.30;;;;;;;6.12;100.00;98413.53;5078184;28;20196;-79
2023/11/14 00:30:19;;;;;;;9.03;8.20;;;;;;;6.15;100.00;98394.50;5078484;28;20192;-79
2023/11/14 00:32:50;;;;;;;10.30;9.30;;;;;;;6.16;100.00;98396.09;5072899;28;20269;-80
2023/11/14 00:35:21;;;;;;;9.73;8.83;;;;;;;6.17;100.00;98397.72;5071374;28;20194;-79
2023/11/14 00:37:50;;;;;;;9.80;8.90;;;;;;;6.18;100.00;98412.66;5072800;28;20203;-82
2023/11/14 00:40:22;;;;;;;11.00;8.90;;;;;;;6.19;100.00;98401.00;5079455;28;20246;-80
2023/11/14 00:42:50;;;;;;;9.00;8.10;;;;;;;6.19;100.00;98426.75;5071394;28;20240;-79
2023/11/14 00:45:18;;;;;;;9.67;8.67;;;;;;;6.15;100.00;98423.75;5070505;28;20228;-79
2023/11/14 00:47:46;;;;;;;9.20;8.40;;;;;;;6.14;100.00;98429.28;5086767;28;20206;-79
2023/11/14 00:50:17;;;;;;;9.67;8.77;;;;;;;6.20;100.00;98396.47;5082427;28;20199;-81
2023/11/14 00:52:51;;;;;;;9.33;8.53;;;;;;;6.19;100.00;98418.78;5081916;28;20220;-79
2023/11/14 00:55:19;;;;;;;9.63;8.70;;;;;;;6.18;100.00;98419.81;5085230;28;20201;-79
2023/11/14 00:57:46;;;;;;;9.50;8.60;;;;;;;6.20;100.00;98439.81;5081799;28;20218;-79
2023/11/14 01:00:18;;;;;;;8.90;8.10;;;;;;;6.25;100.00;98438.38;5080407;28;20212;-82
2023/11/14 01:02:45;;;;;;;9.73;8.83;;;;;;;6.25;100.00;98444.50;5080498;28;20250;-79
2023/11/14 01:05:18;;;;;;;9.53;8.73;;;;;;;6.25;100.00;98455.16;5082342;28;20203;-83
2023/11/14 01:07:56;;;;;;;10.13;9.13;;;;;;;6.30;100.00;98457.94;5078776;28;20228;-79
2023/11/14 01:10:29;;;;;;;9.47;8.57;;;;;;;6.30;100.00;98465.91;5082516;28;20351;-78
2023/11/14 01:13:00;;;;;;;8.97;8.13;;;;;;;6.32;100.00;98466.53;5061950;28;21026;-79
2023/11/14 01:15:29;;;;;;;10.33;9.00;;;;;;;6.32;100.00;98477.16;5070996;28;20250;-79
2023/11/14 01:17:59;;;;;;;10.13;9.13;;;;;;;6.36;100.00;98454.41;5076703;28;20199;-79
2023/11/14 01:20:28;;;;;;;9.57;8.57;;;;;;;6.41;100.00;98461.72;5060061;28;20696;-77
2023/11/14 01:22:59;;;;;;;9.50;8.60;;;;;;;6.49;100.00;98469.41;5063023;28;20630;-78
2023/11/14 01:25:32;;;;;;;9.30;8.40;;;;;;;6.49;100.00;98464.09;5083289;28;20588;-79
2023/11/14 01:28:05;;;;;;;8.97;8.17;;;;;;;6.49;100.00;98470.22;5055537;28;20740;-80
2023/11/14 01:30:34;;;;;;;10.13;9.13;;;;;;;6.53;100.00;98467.94;5069322;28;20204;-79
2023/11/14 01:33:05;;;;;;;8.63;7.83;;;;;;;6.67;100.00;98456.13;5071621;28;20327;-79
2023/11/14 01:35:34;;;;;;;7.20;6.50;;;;;;;6.84;100.00;98467.78;5082009;28;20688;-80
2023/11/14 01:38:12;;;;;;;6.33;5.80;;;;;;;7.05;100.00;98488.59;5076879;28;20738;-78
2023/11/14 01:40:51;;;;;;;5.90;5.30;;;;;;;7.24;100.00;98488.56;5077025;28;20191;-80
2023/11/14 01:43:22;;;;;;;6.23;5.63;;;;;;;7.31;100.00;98474.13;5073147;28;20239;-79
2023/11/14 01:45:52;;;;;;;7.37;6.10;;;;;;;7.46;100.00;98473.72;5075488;28;20193;-79
2023/11/14 01:48:19;;;;;;;7.07;6.43;;;;;;;7.48;100.00;98471.63;5060463;28;20211;-81
2023/11/14 01:50:50;;;;;;;6.83;6.23;;;;;;;7.49;100.00;98463.41;5079093;28;20730;-79
2023/11/14 01:53:24;;;;;;;7.03;6.33;;;;;;;7.60;100.00;98463.66;5071309;28;20298;-79
2023/11/14 01:55:53;;;;;;;6.20;5.60;;;;;;;7.60;100.00;98448.50;5070415;28;20228;-79
2023/11/14 01:58:24;;;;;;;5.50;5.00;;;;;;;7.71;100.00;98452.19;5063472;28;20200;-79
2023/11/14 02:00:52;;;;;;;4.60;4.20;;;;;;;7.88;100.00;98448.66;5086574;28;20618;-79
2023/11/14 02:03:25;;;;;;;4.30;3.83;;;;;;;8.05;100.00;98447.94;5084803;28;20192;-79
2023/11/14 02:05:53;;;;;;;3.40;3.10;;;;;;;8.18;100.00;98458.38;5086040;28;20204;-79
2023/11/14 02:08:21;;;;;;;3.40;3.10;;;;;;;8.27;100.00;98467.66;5071010;28;20211;-78
2023/11/14 02:11:05;;;;;;;3.67;2.80;;;;;;;8.47;100.00;98468.16;5061638;28;20635;-80
2023/11/14 02:13:39;;;;;;;3.93;3.57;;;;;;;8.58;100.00;98466.50;5086030;28;20212;-79
2023/11/14 02:16:13;;;;;;;5.57;4.00;;;;;;;8.66;100.00;98460.81;5078210;28;20208;-82
2023/11/14 02:18:42;;;;;;;4.70;4.20;;;;;;;8.76;100.00;98459.16;5085142;28;20304;-79
2023/11/14 02:21:15;;;;;;;5.57;4.03;;;;;;;8.78;100.00;98462.41;5063117;28;20184;-81
2023/11/14 02:23:45;;;;;;;5.00;4.50;;;;;;;8.76;100.00;98469.03;5078079;28;20280;-80
2023/11/14 02:26:14;;;;;;;5.83;5.27;;;;;;;8.69;100.00;98466.47;5079245;28;20258;-79
2023/11/14 02:28:42;;;;;;;5.80;5.17;;;;;;;8.67;100.00;98473.94;5085961;28;20216;-79
2023/11/14 02:31:17;;;;;;;8.93;6.90;;;;;;;8.64;100.00;98471.72;5082363;28;20218;-79
2023/11/14 02:33:46;;;;;;;19.87;12.57;;;;;;;8.67;100.00;98473.13;5083209;28;20232;-79
2023/11/14 02:36:16;;;;;;;15.30;10.20;;;;;;;8.68;100.00;98474.72;5076372;28;20196;-79
2023/11/14 02:38:48;;;;;;;11.90;8.67;;;;;;;8.67;100.00;98473.94;5081069;28;20189;-79
2023/11/14 02:41:25;;;;;;;13.13;9.90;;;;;;;8.65;100.00;98467.19;5074869;28;20196;-79
2023/11/14 02:44:02;;;;;;;12.33;9.00;;;;;;;8.62;100.00;98479.16;5086620;28;20232;-78
2023/11/14 02:46:42;;;;;;;10.67;7.83;;;;;;;8.64;100.00;98484.25;5085361;28;20287;-80
2023/11/14 02:49:29;;;;;;;9.10;7.20;;;;;;;8.64;100.00;98473.56;5078742;28;20216;-80
2023/11/14 02:52:03;;;;;;;5.63;5.13;;;;;;;8.70;100.00;98456.63;5084299;28;20204;-79
2023/11/14 02:54:33;;;;;;;3.33;3.03;;;;;;;8.85;100.00;98475.63;5082317;28;20338;-78
2023/11/14 02:57:12;;;;;;;3.10;2.80;;;;;;;9.02;100.00;98486.38;5086786;28;20648;-81
2023/11/14 02:59:49;;;;;;;3.67;3.20;;;;;;;9.20;100.00;98481.66;5085251;28;20199;-80
2023/11/14 03:02:19;;;;;;;3.07;2.77;;;;;;;9.37;100.00;98483.59;5084733;28;20245;-77
2023/11/14 03:04:47;;;;;;;2.80;2.40;;;;;;;9.55;100.00;98483.38;5074463;28;20205;-80
2023/11/14 03:07:18;;;;;;;1.60;1.50;;;;;;;9.88;100.00;98491.44;5074125;28;20278;-79
2023/11/14 03:09:54;;;;;;;1.37;1.27;;;;;;;10.08;100.00;98502.47;5057432;28;20299;-79
2023/11/14 03:12:22;;;;;;;1.77;1.20;;;;;;;10.47;100.00;98506.03;5074202;28;20203;-78
2023/11/14 03:14:58;;;;;;;1.07;1.00;;;;;;;10.77;100.00;98521.75;5087709;28;20243;-80
2023/11/14 03:17:25;;;;;;;0.90;0.90;;;;;;;11.00;100.00;98518.00;5073119;28;20246;-80
2023/11/14 03:19:55;;;;;;;1.10;0.70;;;;;;;11.09;100.00;98535.28;5082477;28;20221;-79
2023/11/14 03:22:27;;;;;;;0.80;0.80;;;;;;;11.14;100.00;98521.13;5081267;28;20259;-80
2023/11/14 03:24:55;;;;;;;0.80;0.80;;;;;;;11.17;100.00;98521.44;5079081;28;20196;-81
2023/11/14 03:27:26;;;;;;;0.83;0.67;;;;;;;11.23;100.00;98528.47;5082915;28;20209;-79
2023/11/14 03:29:57;;;;;;;0.70;0.63;;;;;;;11.29;100.00;98537.41;5082201;28;20201;-80
2023/11/14 03:32:25;;;;;;;0.60;0.60;;;;;;;11.31;100.00;98536.09;5075814;28;20665;-80
2023/11/14 03:34:54;;;;;;;1.00;0.80;;;;;;;11.33;100.00;98547.38;5077711;28;20212;-79
2023/11/14 03:37:24;;;;;;;0.70;0.70;;;;;;;11.36;100.00;98549.56;5086564;28;20197;-80
2023/11/14 03:39:52;;;;;;;0.90;0.77;;;;;;;11.35;100.00;98555.97;5084830;28;20745;-79
2023/11/14 03:42:22;;;;;;;1.30;0.80;;;;;;;11.34;100.00;98574.97;5097684;28;20268;-79
2023/11/14 03:44:50;;;;;;;1.10;0.80;;;;;;;11.35;100.00;98590.00;5085675;28;20335;-78
2023/11/14 03:47:20;;;;;;;0.80;0.80;;;;;;;11.37;100.00;98593.28;5073539;28;20235;-80
2023/11/14 03:49:48;;;;;;;0.83;0.60;;;;;;;11.42;100.00;98610.25;5079873;28;20200;-80
2023/11/14 03:52:22;;;;;;;0.90;0.80;;;;;;;11.42;100.00;98607.56;5072274;28;20209;-80
2023/11/14 03:54:50;;;;;;;1.07;0.60;;;;;;;11.48;100.00;98625.31;5080178;28;20273;-80
2023/11/14 03:57:19;;;;;;;0.63;0.53;;;;;;;11.52;100.00;98630.19;5071964;28;20733;-79
2023/11/14 03:59:50;;;;;;;0.87;0.70;;;;;;;11.55;100.00;98627.81;5076161;28;20285;-78
2023/11/14 04:02:18;;;;;;;1.73;0.47;;;;;;;11.72;100.00;98638.47;5081304;28;20208;-80
2023/11/14 04:04:47;;;;;;;0.50;0.50;;;;;;;11.86;100.00;98626.31;5084777;28;20190;-79
2023/11/14 04:07:17;;;;;;;0.57;0.57;;;;;;;11.92;100.00;98622.63;5079769;28;20233;-79
2023/11/14 04:09:46;;;;;;;0.40;0.30;;;;;;;12.14;100.00;98620.72;5084397;28;20213;-79
2023/11/14 04:12:15;;;;;;;0.33;0.20;;;;;;;12.31;100.00;98617.94;5077222;28;20741;-79
2023/11/14 04:14:44;;;;;;;1.23;0.37;;;;;;;12.51;100.00;98623.47;5071715;28;20251;-81
2023/11/14 04:17:13;;;;;;;0.70;0.30;;;;;;;12.63;100.00;98625.97;5080296;28;20233;-80
2023/11/14 04:19:44;;;;;;;0.67;0.30;;;;;;;13.00;100.00;98599.91;5077782;28;20202;-77
2023/11/14 04:22:19;;;;;;;0.70;0.30;;;;;;;13.02;100.00;98597.75;5071608;28;20202;-78
2023/11/14 04:24:48;;;;;;;0.30;0.30;;;;;;;12.94;100.00;98594.75;5075810;28;20221;-79
2023/11/14 04:27:17;;;;;;;1.30;0.40;;;;;;;13.02;100.00;98583.50;5079931;28;20205;-79
2023/11/14 04:29:50;;;;;;;0.40;0.30;;;;;;;13.04;100.00;98587.56;5075665;28;20203;-80
2023/11/14 04:32:19;;;;;;;0.50;0.30;;;;;;;13.01;100.00;98561.19;5063431;28;20201;-78
2023/11/14 04:34:47;;;;;;;0.80;0.40;;;;;;;12.97;100.00;98549.31;5079684;28;20237;-80
2023/11/14 04:37:18;;;;;;;0.97;0.40;;;;;;;13.09;100.00;98560.69;5071185;28;20687;-78
2023/11/14 04:39:53;;;;;;;0.83;0.30;;;;;;;13.07;100.00;98559.31;5071343;28;20290;-78
2023/11/14 04:42:23;;;;;;;0.87;0.37;;;;;;;12.95;100.00;98564.91;5080140;28;20192;-78
2023/11/14 04:44:52;;;;;;;0.70;0.37;;;;;;;12.90;100.00;98562.19;5072226;28;20208;-78
2023/11/14 04:47:20;;;;;;;0.60;0.30;;;;;;;12.84;100.00;98555.16;5079097;28;20204;-78
2023/11/14 04:49:52;;;;;;;0.93;0.40;;;;;;;12.88;100.00;98567.00;5079305;28;20207;-79
2023/11/14 04:52:24;;;;;;;0.97;0.43;;;;;;;12.82;100.00;98594.94;5079864;28;20241;-78
2023/11/14 04:54:52;;;;;;;0.53;0.40;;;;;;;12.87;100.00;98586.09;5079099;28;20214;-80
2023/11/14 04:57:23;;;;;;;0.47;0.30;;;;;;;12.87;100.00;98592.31;5080284;28;20209;-79
2023/11/14 04:59:51;;;;;;;0.93;0.50;;;;;;;12.90;100.00;98588.28;5072382;28;20206;-80
2023/11/14 05:02:23;;;;;;;1.37;0.47;;;;;;;12.90;100.00;98626.72;5080583;28;20198;-79
2023/11/14 05:04:53;;;;;;;0.50;0.40;;;;;;;12.80;100.00;98640.91;5075331;28;20188;-79
2023/11/14 05:07:25;;;;;;;0.57;0.40;;;;;;;12.76;100.00;98637.09;5083281;28;20195;-79
2023/11/14 05:09:53;;;;;;;0.97;0.40;;;;;;;12.73;100.00;98623.38;5084771;28;20204;-78
2023/11/14 05:12:21;;;;;;;0.87;0.50;;;;;;;12.64;100.00;98628.44;5092439;28;20195;-78
2023/11/14 05:14:50;;;;;;;0.60;0.40;;;;;;;12.68;100.00;98639.47;5084898;28;20232;-79
2023/11/14 05:17:18;;;;;;;0.77;0.30;;;;;;;12.77;100.00;98644.09;5092648;28;20253;-79
2023/11/14 05:19:46;;;;;;;0.90;0.40;;;;;;;12.76;100.00;98637.09;5078199;28;20225;-78
2023/11/14 05:22:19;;;;;;;0.50;0.43;;;;;;;12.73;100.00;98636.81;5058006;28;20194;-79
2023/11/14 05:24:47;;;;;;;1.37;0.50;;;;;;;12.66;100.00;98622.78;5072422;28;20196;-78
2023/11/14 05:27:19;;;;;;;3.13;0.60;;;;;;;12.72;100.00;98597.56;5070526;28;20264;-80
2023/11/14 05:29:49;;;;;;;0.43;0.30;;;;;;;12.62;100.00;98571.44;5078084;28;20207;-78
2023/11/14 05:32:17;;;;;;;1.40;0.50;;;;;;;12.66;100.00;98564.47;5079547;28;20558;-80
2023/11/14 05:34:45;;;;;;;1.27;0.40;;;;;;;12.58;100.00;98588.31;5077905;28;20414;-79
2023/11/14 05:37:16;;;;;;;1.43;0.50;;;;;;;12.55;100.00;98578.88;5073422;28;20213;-80
2023/11/14 05:39:43;;;;;;;1.40;0.50;;;;;;;12.72;100.00;98573.38;5077681;28;20200;-80
2023/11/14 05:42:10;;;;;;;0.67;0.30;;;;;;;12.64;100.00;98598.06;5077648;28;20187;-80
2023/11/14 05:44:40;;;;;;;1.00;0.50;;;;;;;12.49;100.00;98584.50;5082759;28;20229;-80
2023/11/14 05:47:09;;;;;;;0.83;0.47;;;;;;;12.43;100.00;98574.78;5080034;28;20202;-78
2023/11/14 05:49:36;;;;;;;0.57;0.47;;;;;;;12.32;100.00;98573.88;5080377;28;20194;-79
2023/11/14 05:52:13;;;;;;;0.97;0.47;;;;;;;12.36;100.00;98588.44;5075318;28;20258;-79
2023/11/14 05:54:40;;;;;;;1.07;0.40;;;;;;;12.31;100.00;98585.69;5080065;28;20215;-79
2023/11/14 05:57:11;;;;;;;1.07;0.50;;;;;;;12.18;100.00;98588.78;5078964;28;20278;-80
2023/11/14 05:59:45;;;;;;;1.03;0.40;;;;;;;12.11;100.00;98593.56;5077589;28;20245;-78
2023/11/14 06:02:14;;;;;;;0.40;0.30;;;;;;;12.01;100.00;98596.16;5077144;28;20200;-81
2023/11/14 06:04:47;;;;;;;1.00;0.50;;;;;;;11.99;100.00;98604.44;5068896;28;20225;-80
2023/11/14 06:07:15;;;;;;;1.83;0.50;;;;;;;11.87;100.00;98615.34;5072852;28;20198;-79
2023/11/14 06:09:48;;;;;;;0.83;0.50;;;;;;;11.81;100.00;98629.75;5075686;28;20179;-80
2023/11/14 06:12:19;;;;;;;1.63;0.50;;;;;;;11.92;100.00;98630.69;5070134;28;20222;-79
2023/11/14 06:14:48;;;;;;;1.27;0.43;;;;;;;11.89;100.00;98637.38;5078744;28;20211;-80
2023/11/14 06:17:16;;;;;;;0.63;0.40;;;;;;;11.90;100.00;98647.03;5082860;28;20197;-80
2023/11/14 06:19:52;;;;;;;1.10;0.40;;;;;;;11.92;100.00;98641.44;5078049;28;20221;-78
2023/11/14 06:22:32;;;;;;;0.50;0.40;;;;;;;11.94;100.00;98670.72;5077309;28;20209;-78
2023/11/14 06:25:04;;;;;;;0.90;0.40;;;;;;;11.89;100.00;98676.84;5079475;28;20263;-82
2023/11/14 06:27:34;;;;;;;1.60;0.77;;;;;;;11.89;100.00;98674.16;5077857;28;20761;-81
2023/11/14 06:30:03;;;;;;;0.73;0.47;;;;;;;11.91;100.00;98682.75;5073762;28;20198;-77
2023/11/14 06:32:35;;;;;;;1.50;0.50;;;;;;;11.95;100.00;98683.84;5073790;28;20280;-77
2023/11/14 06:35:05;;;;;;;1.17;0.47;;;;;;;11.93;100.00;98707.47;5086132;28;20217;-79
2023/11/14 06:37:35;;;;;;;1.43;0.70;;;;;;;11.93;100.00;98723.56;5072107;28;20213;-80
2023/11/14 06:40:07;;;;;;;1.40;0.50;;;;;;;12.04;100.00;98722.63;5080555;28;20650;-79
2023/11/14 06:42:37;;;;;;;1.10;0.50;;;;;;;12.28;100.00;98723.16;5073401;28;20285;-79
2023/11/14 06:45:06;;;;;;;0.50;0.40;;;;;;;12.28;100.00;98710.53;5074586;28;20215;-80
2023/11/14 06:47:34;;;;;;;1.63;0.40;;;;;;;12.38;100.00;98712.53;5061788;28;20217;-80
2023/11/14 06:50:01;;;;;;;1.23;0.40;;;;;;;12.53;100.00;98725.31;5077192;28;20210;-80
2023/11/14 06:52:29;;;;;;;0.77;0.50;;;;;;;12.61;100.00;98732.91;5076845;28;20288;-79
2023/11/14 06:54:59;;;;;;;2.33;0.50;;;;;;;12.76;100.00;98751.88;5085312;28;20328;-79
2023/11/14 06:57:27;;;;;;;1.23;0.43;;;;;;;12.77;100.00;98764.25;5083780;28;20224;-79
2023/11/14 07:00:16;;;;;;;2.93;0.63;;;;;;;12.79;100.00;98765.59;5077194;28;20276;-78
2023/11/14 07:02:44;;;;;;;1.73;0.57;;;;;;;12.73;100.00;98790.81;5081207;28;20663;-80
2023/11/14 07:05:12;;;;;;;1.57;0.70;;;;;;;12.74;100.00;98795.13;5056805;28;20199;-80
2023/11/14 07:07:40;;;;;;;2.03;0.60;;;;;;;12.80;100.00;98810.22;5082286;28;20265;-79
2023/11/14 07:10:10;;;;;;;1.40;0.50;;;;;;;12.78;100.00;98817.72;5085555;28;20202;-79
2023/11/14 07:12:40;;;;;;;3.63;0.90;;;;;;;12.71;100.00;98845.88;5077564;28;20269;-80
2023/11/14 07:15:10;;;;;;;1.97;0.60;;;;;;;12.77;100.00;98824.19;5063527;28;20723;-78
2023/11/14 07:17:39;;;;;;;1.77;0.50;;;;;;;12.81;100.00;98829.88;5082274;28;20192;-79
2023/11/14 07:20:20;;;;;;;1.47;0.50;;;;;;;12.78;100.00;98825.00;5077076;28;20717;-79
2023/11/14 07:22:52;;;;;;;1.60;0.70;;;;;;;12.88;100.00;98813.53;5072101;28;21015;-78
2023/11/14 07:25:21;;;;;;;1.50;0.60;;;;;;;12.86;100.00;98815.66;5076317;28;20204;-79
2023/11/14 07:27:51;;;;;;;2.67;0.60;;;;;;;12.90;100.00;98828.34;5081460;28;20218;-80
2023/11/14 07:30:22;;;;;;;1.03;0.50;;;;;;;12.89;100.00;98825.91;5086725;28;20200;-79
2023/11/14 07:32:55;;;;;;;1.83;0.50;;;;;;;12.94;100.00;98823.25;5083901;28;20287;-79
2023/11/14 07:35:26;;;;;;;2.20;0.50;;;;;;;12.92;100.00;98833.47;5085665;28;20218;-79
2023/11/14 07:37:55;;;;;;;2.87;0.60;;;;;;;12.91;100.00;98837.22;5079020;28;20682;-82
2023/11/14 07:40:24;;;;;;;1.63;0.53;;;;;;;12.93;100.00;98853.91;5080751;28;20199;-79
2023/11/14 07:42:54;;;;;;;0.97;0.50;;;;;;;13.00;100.00;98835.69;5077389;28;20256;-79
2023/11/14 07:45:25;;;;;;;1.57;0.70;;;;;;;12.97;100.00;98863.88;5083580;28;20210;-79
2023/11/14 07:47:57;;;;;;;1.70;0.60;;;;;;;13.01;100.00;98853.47;5072102;28;20219;-80
2023/11/14 07:50:30;;;;;;;1.00;0.60;;;;;;;13.07;100.00;98863.19;5072055;28;20205;-79
2023/11/14 07:52:58;;;;;;;2.27;0.93;;;;;;;13.01;100.00;98877.66;5073238;28;20227;-80
2023/11/14 07:55:27;;;;;;;1.30;0.50;;;;;;;13.09;100.00;98856.50;5068763;28;20305;-79
2023/11/14 07:57:56;;;;;;;2.40;0.60;;;;;;;13.09;100.00;98837.69;5071967;28;20816;-78
2023/11/14 08:00:31;;;;;;;1.27;0.40;;;;;;;13.12;100.00;98829.13;5072478;28;20216;-79
2023/11/14 08:03:01;;;;;;;1.10;0.50;;;;;;;13.10;100.00;98841.19;5081837;28;20265;-80
2023/11/14 08:05:32;;;;;;;2.17;0.60;;;;;;;13.19;100.00;98845.06;5089952;28;20195;-79
2023/11/14 08:08:04;;;;;;;3.93;0.50;;;;;;;13.18;100.00;98836.19;5084760;28;20201;-79
2023/11/14 08:10:35;;;;;;;1.77;0.50;;;;;;;13.15;100.00;98858.22;5084118;28;20204;-79
2023/11/14 08:13:07;;;;;;;1.07;0.40;;;;;;;13.07;100.00;98855.13;5081512;28;20290;-78
2023/11/14 08:15:39;;;;;;;0.70;0.40;;;;;;;13.06;100.00;98873.16;5084232;28;20215;-78
2023/11/14 08:18:09;;;;;;;1.90;0.60;;;;;;;13.07;100.00;98847.88;5072282;28;20187;-81
2023/11/14 08:20:42;;;;;;;0.80;0.40;;;;;;;12.95;100.00;98851.78;5056558;28;20203;-78
2023/11/14 08:23:13;;;;;;;1.17;0.67;;;;;;;12.92;100.00;98834.28;5078533;28;20280;-80
2023/11/14 08:25:43;;;;;;;2.03;0.60;;;;;;;12.78;100.00;98836.53;5078927;28;20200;-80
2023/11/14 08:28:14;;;;;;;1.03;0.50;;;;;;;12.89;100.00;98847.41;5088262;28;20202;-79
2023/11/14 08:30:46;;;;;;;1.33;0.50;;;;;;;12.86;100.00;98812.97;5082121;28;20206;-78
2023/11/14 08:33:13;;;;;;;0.90;0.40;;;;;;;12.89;100.00;98805.22;5080898;28;20199;-79
2023/11/14 08:35:41;;;;;;;3.23;0.60;;;;;;;12.98;100.00;98808.25;5082373;28;20220;-78
2023/11/14 08:38:13;;;;;;;2.50;0.50;;;;;;;12.87;100.00;98823.47;5086692;28;20186;-78
2023/11/14 08:40:52;;;;;;;0.93;0.50;;;;;;;13.03;100.00;98816.34;5080758;28;20205;-79
2023/11/14 08:43:24;;;;;;;2.10;0.73;;;;;;;13.15;100.00;98838.56;5079518;28;20259;-79
2023/11/14 08:45:54;;;;;;;0.70;0.40;;;;;;;13.03;100.00;98838.69;5082640;28;20200;-78
2023/11/14 08:48:23;;;;;;;3.87;0.77;;;;;;;13.07;100.00;98860.50;5084234;28;20200;-79
2023/11/14 08:50:53;;;;;;;2.57;0.90;;;;;;;13.03;100.00;98870.94;5071658;28;20203;-81
2023/11/14 08:53:24;;;;;;;2.70;0.77;;;;;;;13.04;100.00;98886.03;5070991;28;20248;-79
2023/11/14 08:55:53;;;;;;;1.40;0.70;;;;;;;12.99;100.00;98874.41;5079637;28;20210;-81
2023/11/14 08:58:22;;;;;;;1.43;0.60;;;;;;;13.08;100.00;98873.69;5073254;28;20679;-81
2023/11/14 09:00:54;;;;;;;2.23;0.70;;;;;;;13.18;100.00;98867.63;5076224;28;20207;-80
2023/11/14 09:03:22;;;;;;;0.93;0.50;;;;;;;13.24;100.00;98877.38;5076910;28;20190;-79
2023/11/14 09:05:52;;;;;;;0.87;0.63;;;;;;;13.32;100.00;98885.00;5078664;28;20206;-78
2023/11/14 09:08:21;;;;;;;1.00;0.40;;;;;;;13.37;100.00;98893.09;5070495;28;20688;-82
2023/11/14 09:10:55;;;;;;;1.73;0.57;;;;;;;13.52;100.00;98898.63;5071933;28;20241;-79
2023/11/14 09:13:28;;;;;;;1.53;0.70;;;;;;;13.59;100.00;98901.91;5081377;28;20771;-78
2023/11/14 09:16:02;;;;;;;2.87;0.50;;;;;;;13.67;100.00;98897.91;5079352;28;20225;-79
2023/11/14 09:18:35;;;;;;;2.53;0.50;;;;;;;13.74;100.00;98897.72;5082410;28;20247;-80
2023/11/14 09:21:04;;;;;;;1.23;0.50;;;;;;;13.81;100.00;98885.66;5083367;28;20220;-79
2023/11/14 09:23:34;;;;;;;1.03;0.50;;;;;;;13.96;100.00;98883.06;5087720;28;20191;-79
2023/11/14 09:26:03;;;;;;;1.70;0.60;;;;;;;13.90;100.00;98884.13;5088158;28;20240;-79
2023/11/14 09:28:35;;;;;;;2.83;0.90;;;;;;;14.02;100.00;98887.44;5075997;28;20196;-82
2023/11/14 09:31:04;;;;;;;2.90;0.70;;;;;;;14.20;100.00;98890.75;5077226;28;20246;-79
2023/11/14 09:33:36;;;;;;;1.67;0.70;;;;;;;14.36;100.00;98885.25;5083961;28;20678;-79
2023/11/14 09:36:09;;;;;;;1.60;0.50;;;;;;;14.39;100.00;98889.28;5088553;28;20212;-79
2023/11/14 09:38:38;;;;;;;1.20;0.60;;;;;;;14.26;100.00;98873.56;5079307;28;20211;-80
2023/11/14 09:41:09;;;;;;;1.57;0.50;;;;;;;14.38;100.00;98885.75;5083558;28;20210;-80
2023/11/14 09:43:37;;;;;;;2.33;1.03;;;;;;;14.35;100.00;98894.34;5086849;28;20696;-79
2023/11/14 09:46:04;;;;;;;1.30;0.53;;;;;;;14.42;100.00;98891.44;5078636;28;20516;-80
2023/11/14 09:48:37;;;;;;;1.50;0.57;;;;;;;14.32;100.00;98872.53;5067992;28;20207;-79
2023/11/14 09:51:10;;;;;;;1.80;0.60;;;;;;;14.41;100.00;98868.28;5082801;28;20199;-79
2023/11/14 09:53:38;;;;;;;1.97;0.63;;;;;;;14.23;100.00;98868.69;5086133;28;20235;-79
2023/11/14 09:56:10;;;;;;;1.53;0.63;;;;;;;14.35;100.00;98872.78;5077011;28;20706;-79
2023/11/14 09:58:38;;;;;;;0.83;0.60;;;;;;;14.28;100.00;98882.97;5088047;28;20199;-79
2023/11/14 10:01:06;;;;;;;2.23;0.57;;;;;;;14.22;100.00;98865.19;5080498;28;20203;-79
2023/11/14 10:03:36;;;;;;;1.33;0.50;;;;;;;14.09;100.00;98863.75;5081016;28;20193;-79
2023/11/14 10:06:06;;;;;;;3.33;0.70;;;;;;;14.02;100.00;98873.16;5088596;28;20228;-79
2023/11/14 10:08:33;;;;;;;2.63;0.90;;;;;;;14.00;100.00;98857.22;5084565;28;20250;-82
2023/11/14 10:11:11;;;;;;;2.10;0.73;;;;;;;14.01;100.00;98847.28;5077460;28;20288;-79
2023/11/14 10:13:45;;;;;;;1.80;0.70;;;;;;;13.99;100.00;98847.56;5086326;28;20196;-79
2023/11/14 10:16:24;;;;;;;2.10;1.00;;;;;;;13.91;100.00;98844.53;5075432;28;20223;-80
2023/11/14 10:19:16;;;;;;;3.37;0.80;;;;;;;13.95;100.00;98843.75;5078107;28;20230;-80
2023/11/14 10:21:44;;;;;;;2.07;0.67;;;;;;;13.90;100.00;98843.72;5078170;28;20196;-80
2023/11/14 10:24:16;;;;;;;2.03;0.70;;;;;;;13.83;100.00;98845.00;5078744;28;20195;-79
2023/11/14 10:26:50;;;;;;;1.57;0.60;;;;;;;13.91;100.00;98834.56;5096694;28;20208;-78
2023/11/14 10:29:26;;;;;;;2.67;0.80;;;;;;;14.01;100.00;98847.28;5096358;28;20187;-78
2023/11/14 10:31:59;;;;;;;2.07;0.70;;;;;;;14.07;100.00;98844.38;5066478;28;20198;-78
2023/11/14 10:34:27;;;;;;;2.13;0.80;;;;;;;14.08;100.00;98843.31;5077747;28;20704;-79
2023/11/14 10:37:08;;;;;;;2.30;0.60;;;;;;;14.20;100.00;98853.84;5074934;28;20224;-78
2023/11/14 10:39:51;;;;;;;1.87;0.70;;;;;;;14.44;100.00;98851.56;5075121;28;20209;-79
2023/11/14 10:42:23;;;;;;;2.33;0.73;;;;;;;14.56;100.00;98835.97;5073770;28;20202;-78
2023/11/14 10:45:07;;;;;;;2.10;0.80;;;;;;;14.72;100.00;98826.06;5073901;28;20197;-79
2023/11/14 10:47:40;;;;;;;3.17;1.10;;;;;;;14.80;100.00;98839.84;5079842;28;20585;-79
2023/11/14 10:50:29;;;;;;;3.77;0.60;;;;;;;14.97;100.00;98829.63;5084685;28;20216;-79
2023/11/14 10:53:00;;;;;;;3.73;0.80;;;;;;;15.08;100.00;98832.31;5074134;28;20331;-79
2023/11/14 10:55:32;;;;;;;4.07;0.77;;;;;;;15.03;100.00;98829.63;5073415;28;20211;-79
2023/11/14 10:58:00;;;;;;;2.50;0.97;;;;;;;15.19;100.00;98833.97;5081638;28;20221;-79
2023/11/14 11:00:32;;;;;;;1.90;0.70;;;;;;;15.11;100.00;98827.22;5088856;28;20212;-79
2023/11/14 11:03:12;;;;;;;3.10;0.80;;;;;;;14.99;100.00;98834.75;5085889;28;20207;-79
2023/11/14 11:05:43;;;;;;;2.40;0.70;;;;;;;15.10;100.00;98846.38;5078590;28;20246;-79
2023/11/14 11:08:14;;;;;;;1.63;0.90;;;;;;;15.10;100.00;98841.78;5074998;28;20197;-79
2023/11/14 11:10:43;;;;;;;3.27;1.00;;;;;;;15.20;100.00;98847.19;5085883;28;20210;-79
2023/11/14 11:13:16;;;;;;;3.33;0.80;;;;;;;15.24;100.00;98842.06;5084790;28;20192;-79
2023/11/14 11:15:46;;;;;;;2.40;0.80;;;;;;;15.40;100.00;98849.91;5084693;28;20277;-79
2023/11/14 11:18:27;;;;;;;2.77;0.87;;;;;;;15.49;100.00;98860.19;5062024;28;20225;-79
2023/11/14 11:21:14;;;;;;;2.43;0.63;;;;;;;15.50;100.00;98854.50;5075728;28;20196;-79
2023/11/14 11:24:05;;;;;;;2.87;0.80;;;;;;;15.77;100.00;98857.75;5070180;28;20652;-79
2023/11/14 11:27:09;;;;;;;1.27;0.73;;;;;;;15.92;100.00;98838.00;5079234;28;20195;-79
2023/11/14 11:29:56;;;;;;;1.80;0.70;;;;;;;16.14;100.00;98819.56;5080325;28;20208;-79
2023/11/14 11:32:29;;;;;;;2.07;0.90;;;;;;;16.42;100.00;98831.66;5085070;28;20193;-79
2023/11/14 11:35:20;;;;;;;1.23;0.70;;;;;;;16.44;100.00;98834.88;5089290;28;20204;-81
2023/11/14 11:38:03;;;;;;;2.83;0.70;;;;;;;16.71;100.00;98824.50;5086552;28;20193;-80
2023/11/14 11:40:32;;;;;;;1.80;0.80;;;;;;;16.90;100.00;98819.25;5081079;28;20271;-80
2023/11/14 11:43:12;;;;;;;1.93;0.70;;;;;;;16.84;100.00;98815.00;5087849;28;20229;-81
2023/11/14 11:45:45;;;;;;;2.07;0.70;;;;;;;16.77;100.00;98795.53;5091257;28;20192;-79